Time;durP1;ratioP1;P1;durP2;ratioP2;P2;SDS_P1;SDS_P2;PMS_P1;PMS_P2;Temp;Humidity;BMP_temperature;BMP_pressure;BME280_temperature;BME280_humidity;BME280_pressure;Samples;Min_cycle;Max_cycle;Signal;HPM_P1;HPM_P2
2022/04/23 00:00:11;;;;;;;9.53;5.17;;;;;;;12.38;72.57;96250.28;4879577;29;20917;-84
2022/04/23 00:02:42;;;;;;;7.53;4.87;;;;;;;12.13;73.01;96209.53;4879137;29;20198;-85
2022/04/23 00:05:13;;;;;;;10.30;5.00;;;;;;;12.49;72.80;96248.66;4866537;29;20204;-85
2022/04/23 00:07:40;;;;;;;10.40;6.20;;;;;;;12.63;72.24;96253.75;4883048;29;20202;-87
2022/04/23 00:10:08;;;;;;;13.27;6.77;;;;;;;12.44;73.18;96253.34;4884619;29;20269;-87
2022/04/23 00:12:39;;;;;;;8.63;5.43;;;;;;;12.26;73.84;96263.13;4882442;29;20244;-84
2022/04/23 00:15:07;;;;;;;9.07;6.63;;;;;;;12.25;74.07;96258.88;4879240;29;20199;-85
2022/04/23 00:17:36;;;;;;;10.30;6.10;;;;;;;11.89;74.83;96243.06;4877911;29;20204;-90
2022/04/23 00:20:05;;;;;;;9.30;6.97;;;;;;;12.02;75.19;96264.72;4876596;29;20201;-85
2022/04/23 00:22:37;;;;;;;11.33;6.33;;;;;;;11.70;74.87;96215.81;4879487;29;20291;-88
2022/04/23 00:25:06;;;;;;;9.23;6.30;;;;;;;11.91;75.75;96261.16;4884050;29;20193;-83
2022/04/23 00:27:35;;;;;;;10.53;6.03;;;;;;;11.84;75.44;96247.72;4878450;29;20533;-87
2022/04/23 00:30:03;;;;;;;10.60;5.83;;;;;;;11.89;74.34;96243.06;4877120;29;20197;-90
2022/04/23 00:32:31;;;;;;;10.07;6.10;;;;;;;11.80;75.01;96264.41;4859791;29;21117;-89
2022/04/23 00:34:58;;;;;;;7.00;5.37;;;;;;;11.51;76.32;96269.72;4876213;29;20192;-86
2022/04/23 00:37:25;;;;;;;6.53;5.40;;;;;;;11.37;77.14;96255.81;4875886;29;20201;-90
2022/04/23 00:39:53;;;;;;;6.03;5.40;;;;;;;11.19;77.09;96231.03;4876036;29;20202;-91
2022/04/23 00:42:20;;;;;;;7.70;5.43;;;;;;;11.29;76.58;96252.06;4875933;29;20569;-84
2022/04/23 00:44:48;;;;;;;7.13;5.00;;;;;;;11.35;76.64;96268.03;4875571;29;20188;-85
2022/04/23 00:47:15;;;;;;;7.23;5.20;;;;;;;11.15;76.72;96223.53;4876402;29;20203;-89
2022/04/23 00:49:42;;;;;;;8.47;5.27;;;;;;;11.20;76.33;96234.47;4874428;29;20292;-86
2022/04/23 00:52:09;;;;;;;7.90;5.57;;;;;;;11.50;75.69;96260.28;4876651;29;20200;-87
2022/04/23 00:54:38;;;;;;;6.90;5.37;;;;;;;11.12;75.84;96240.13;4876755;29;20192;-86
2022/04/23 00:57:06;;;;;;;5.77;5.17;;;;;;;11.21;76.21;96264.66;4880537;29;20204;-85
2022/04/23 00:59:34;;;;;;;8.47;5.47;;;;;;;11.19;76.44;96245.78;4893961;29;20243;-90
2022/04/23 01:02:03;;;;;;;7.37;5.47;;;;;;;11.01;76.79;96237.34;4877923;29;20200;-87
2022/04/23 01:04:32;;;;;;;7.30;5.13;;;;;;;11.12;75.86;96247.06;4875231;29;20205;-85
2022/04/23 01:07:03;;;;;;;9.70;5.13;;;;;;;11.18;75.42;96255.31;4875547;29;20209;-90
2022/04/23 01:09:31;;;;;;;9.43;5.33;;;;;;;10.96;77.54;96223.84;4875440;29;20248;-84
2022/04/23 01:11:59;;;;;;;8.10;6.07;;;;;;;11.05;76.98;96223.28;4874045;29;20196;-90
2022/04/23 01:14:26;;;;;;;8.03;5.30;;;;;;;11.25;76.55;96229.84;4874983;29;20236;-90
2022/04/23 01:16:54;;;;;;;9.00;5.80;;;;;;;11.39;76.53;96251.41;4875615;29;20199;-90
2022/04/23 01:19:22;;;;;;;13.83;6.93;;;;;;;11.56;75.22;96242.56;4875153;29;20201;-87
2022/04/23 01:21:51;;;;;;;9.30;6.20;;;;;;;11.64;75.52;96244.69;4875762;29;20198;-89
2022/04/23 01:24:21;;;;;;;9.03;5.93;;;;;;;11.76;74.74;96246.53;4888570;29;20685;-86
2022/04/23 01:26:50;;;;;;;7.93;6.27;;;;;;;11.72;75.11;96242.47;4875205;29;20561;-89
2022/04/23 01:29:19;;;;;;;8.33;6.40;;;;;;;11.49;76.14;96207.59;4875819;29;20189;-93
2022/04/23 01:31:46;;;;;;;11.57;6.20;;;;;;;11.59;75.55;96233.75;4876958;29;20200;-91
2022/04/23 01:34:13;;;;;;;9.70;7.07;;;;;;;11.35;76.62;96216.19;4875410;29;20284;-92
2022/04/23 01:36:40;;;;;;;9.30;6.77;;;;;;;11.44;76.99;96238.97;4876394;29;20192;-88
2022/04/23 01:39:07;;;;;;;13.07;7.50;;;;;;;11.45;76.57;96243.25;4874253;29;20280;-88
2022/04/23 01:41:36;;;;;;;12.23;7.00;;;;;;;11.44;76.21;96251.09;4874463;29;20276;-88
2022/04/23 01:44:05;;;;;;;10.57;7.30;;;;;;;11.39;76.50;96245.38;4876257;29;20208;-89
2022/04/23 01:46:32;;;;;;;14.40;10.67;;;;;;;11.29;76.16;96232.13;4875159;29;20211;-87
2022/04/23 01:49:00;;;;;;;12.63;7.40;;;;;;;11.28;76.62;96264.19;4876353;29;20751;-91
2022/04/23 01:51:28;;;;;;;12.93;7.53;;;;;;;11.11;76.55;96266.94;4873388;29;20747;-88
2022/04/23 01:53:55;;;;;;;7.77;6.17;;;;;;;10.95;75.65;96245.47;4876172;29;20306;-90
2022/04/23 01:56:22;;;;;;;7.47;6.67;;;;;;;10.89;75.80;96242.41;4873836;29;20690;-88
2022/04/23 01:58:54;;;;;;;8.17;6.77;;;;;;;10.72;75.32;96246.00;4874713;29;20271;-87
2022/04/23 02:01:22;;;;;;;9.00;6.80;;;;;;;10.95;75.30;96255.84;4875554;29;20210;-88
2022/04/23 02:03:51;;;;;;;11.47;7.73;;;;;;;10.65;75.29;96240.34;4873804;29;20219;-86
2022/04/23 02:06:18;;;;;;;10.10;7.50;;;;;;;10.32;76.79;96247.50;4875457;29;20199;-88
2022/04/23 02:08:46;;;;;;;11.53;7.10;;;;;;;10.30;77.54;96269.22;4874647;29;20191;-88
2022/04/23 02:11:13;;;;;;;9.23;7.63;;;;;;;10.12;78.08;96234.84;4875734;29;20676;-88
2022/04/23 02:13:42;;;;;;;8.97;7.00;;;;;;;10.40;77.89;96257.41;4874227;29;20224;-85
2022/04/23 02:16:09;;;;;;;12.10;7.43;;;;;;;10.52;77.19;96270.50;4873639;29;20211;-90
2022/04/23 02:18:39;;;;;;;10.47;6.97;;;;;;;10.45;76.89;96247.63;4873823;29;20208;-84
2022/04/23 02:21:06;;;;;;;11.33;6.97;;;;;;;10.46;76.21;96239.78;4874256;29;20202;-85
2022/04/23 02:23:33;;;;;;;8.47;6.67;;;;;;;10.65;76.15;96261.06;4883017;29;20291;-84
2022/04/23 02:26:05;;;;;;;12.83;6.80;;;;;;;10.73;75.58;96268.41;4880557;29;20195;-87
2022/04/23 02:28:32;;;;;;;10.73;6.93;;;;;;;10.68;75.44;96265.25;4875264;29;20200;-89
2022/04/23 02:30:59;;;;;;;11.00;6.43;;;;;;;10.72;75.17;96261.53;4876323;29;20207;-87
2022/04/23 02:33:28;;;;;;;8.60;6.10;;;;;;;10.62;74.85;96263.00;4875556;29;20651;-89
2022/04/23 02:35:57;;;;;;;9.27;6.67;;;;;;;10.21;75.98;96260.22;4875507;29;20812;-86
2022/04/23 02:38:28;;;;;;;8.93;6.83;;;;;;;9.75;77.12;96236.06;4887019;29;20213;-86
2022/04/23 02:40:55;;;;;;;8.87;6.67;;;;;;;9.81;77.40;96238.31;4888602;29;20215;-84
2022/04/23 02:43:23;;;;;;;7.77;6.30;;;;;;;9.77;76.92;96239.38;4885546;29;20203;-85
2022/04/23 02:45:52;;;;;;;7.67;6.80;;;;;;;9.45;77.12;96222.25;4885865;29;20230;-88
2022/04/23 02:48:19;;;;;;;9.83;6.87;;;;;;;9.50;78.27;96256.41;4881062;29;20204;-87
2022/04/23 02:50:46;;;;;;;10.27;6.87;;;;;;;9.41;77.79;96223.31;4884168;29;20188;-86
2022/04/23 02:53:13;;;;;;;13.03;6.70;;;;;;;9.49;78.52;96262.50;4878259;29;20315;-86
2022/04/23 02:55:41;;;;;;;13.37;8.10;;;;;;;9.47;78.92;96264.34;4878921;29;20217;-89
2022/04/23 02:58:10;;;;;;;10.17;7.13;;;;;;;9.34;78.68;96258.16;4876778;29;20199;-91
2022/04/23 03:00:41;;;;;;;7.77;7.00;;;;;;;9.19;79.23;96281.38;4879436;29;20604;-90
2022/04/23 03:03:10;;;;;;;7.90;6.10;;;;;;;9.10;80.11;96277.53;4878398;29;20286;-86
2022/04/23 03:05:42;;;;;;;8.80;6.37;;;;;;;8.76;80.37;96254.34;4881106;29;20202;-87
2022/04/23 03:08:12;;;;;;;9.83;7.70;;;;;;;8.61;81.61;96278.38;4885089;29;20195;-88
2022/04/23 03:10:40;;;;;;;12.07;9.07;;;;;;;8.40;80.95;96258.78;4899794;29;20212;-88
2022/04/23 03:13:10;;;;;;;11.03;8.97;;;;;;;8.42;81.68;96268.13;4899162;29;20241;-85
2022/04/23 03:15:38;;;;;;;12.70;9.87;;;;;;;8.37;81.98;96274.41;4915465;29;20180;-89
2022/04/23 03:18:12;;;;;;;14.63;10.63;;;;;;;8.34;82.58;96262.50;4898465;29;20184;-88
2022/04/23 03:20:43;;;;;;;12.73;9.17;;;;;;;8.08;83.41;96232.81;4876440;29;20203;-88
2022/04/23 03:23:48;;;;;;;14.23;9.70;;;;;;;8.44;83.45;96268.03;4889014;29;20212;-84
2022/04/23 03:29:25;;;;;;;12.00;9.20;;;;;;;8.74;82.15;96269.06;4898453;29;20191;-89
2022/04/23 03:32:04;;;;;;;12.53;8.70;;;;;;;8.82;80.99;96274.72;4888164;29;20208;-85
2022/04/23 03:35:05;;;;;;;13.07;9.83;;;;;;;9.06;80.68;96260.53;4862044;29;20260;-87
2022/04/23 03:38:18;;;;;;;9.40;7.93;;;;;;;9.09;79.92;96251.78;4891279;29;20192;-87
2022/04/23 03:41:23;;;;;;;13.00;8.87;;;;;;;9.09;78.96;96228.53;4899831;29;20192;-89
2022/04/23 03:43:53;;;;;;;10.47;7.70;;;;;;;9.13;79.91;96263.63;4896309;29;20196;-89
2022/04/23 03:46:21;;;;;;;10.00;6.97;;;;;;;8.92;80.00;96247.50;4884553;29;20213;-92
2022/04/23 03:48:48;;;;;;;12.13;8.30;;;;;;;8.82;80.83;96251.47;4879678;29;20201;-88
2022/04/23 03:51:16;;;;;;;10.53;8.93;;;;;;;8.87;81.53;96264.97;4879131;29;20199;-87
2022/04/23 03:53:44;;;;;;;13.53;8.60;;;;;;;8.65;81.96;96213.63;4879602;29;20335;-91
2022/04/23 03:56:12;;;;;;;11.93;8.13;;;;;;;8.94;80.91;96233.56;4879789;29;20703;-89
2022/04/23 03:58:40;;;;;;;10.80;8.17;;;;;;;9.29;80.00;96257.56;4876303;29;20650;-90
2022/04/23 04:01:07;;;;;;;10.63;8.57;;;;;;;9.35;79.74;96272.75;4877526;29;20260;-91
2022/04/23 04:03:35;;;;;;;10.20;7.80;;;;;;;9.34;79.99;96267.63;4877678;29;20210;-92
2022/04/23 04:06:03;;;;;;;12.07;7.23;;;;;;;9.63;79.17;96274.66;4878214;29;20286;-92
2022/04/23 04:08:31;;;;;;;12.40;7.07;;;;;;;9.70;78.74;96266.50;4877491;29;20706;-92
2022/04/23 04:10:59;;;;;;;8.10;7.07;;;;;;;10.16;77.06;96285.50;4877142;29;20204;-90
2022/04/23 04:13:27;;;;;;;10.30;7.77;;;;;;;10.37;75.57;96252.41;4894994;29;20231;-94
2022/04/23 04:15:55;;;;;;;12.30;7.77;;;;;;;10.65;74.29;96275.78;4879238;29;20196;-88
2022/04/23 04:18:23;;;;;;;11.33;8.40;;;;;;;10.27;74.44;96248.69;4879095;29;20256;-91
2022/04/23 04:20:54;;;;;;;10.03;7.27;;;;;;;10.55;74.27;96241.00;4877666;29;20253;-92
2022/04/23 04:23:24;;;;;;;12.47;7.33;;;;;;;11.02;72.92;96264.94;4904538;29;20200;-89
2022/04/23 04:25:51;;;;;;;12.73;8.30;;;;;;;11.04;71.98;96280.38;4883303;29;20207;-92
2022/04/23 04:28:20;;;;;;;12.83;7.63;;;;;;;10.86;72.70;96269.31;4877563;29;20656;-90
2022/04/23 04:33:36;;;;;;;12.93;7.13;;;;;;;11.14;71.38;96276.31;4884576;29;20223;-92
2022/04/23 04:36:03;;;;;;;8.90;6.90;;;;;;;11.40;71.44;96283.31;4886262;29;20263;-93
2022/04/23 04:38:30;;;;;;;8.90;7.13;;;;;;;11.67;69.90;96280.81;4877297;29;20206;-88
2022/04/23 04:40:58;;;;;;;11.47;7.00;;;;;;;12.02;69.23;96282.03;4883462;29;20694;-88
2022/04/23 04:43:26;;;;;;;12.60;9.17;;;;;;;12.30;68.07;96281.13;4882471;29;20707;-88
2022/04/23 04:45:55;;;;;;;12.13;7.73;;;;;;;12.44;67.61;96287.09;4882150;29;20183;-92
2022/04/23 04:48:23;;;;;;;10.37;8.13;;;;;;;12.53;67.03;96276.09;4891215;29;20250;-91
2022/04/23 04:50:50;;;;;;;12.37;8.20;;;;;;;12.57;65.64;96256.75;4859885;29;20205;-89
2022/04/23 04:53:17;;;;;;;8.90;7.27;;;;;;;12.66;66.41;96273.50;4875472;29;20204;-86
2022/04/23 04:55:45;;;;;;;11.77;7.67;;;;;;;12.71;65.77;96274.91;4876193;29;20196;-92
2022/04/23 04:58:12;;;;;;;10.80;7.97;;;;;;;12.28;67.27;96270.84;4875288;29;20199;-87
2022/04/23 05:00:42;;;;;;;12.13;7.10;;;;;;;12.39;67.98;96280.50;4839212;29;20552;-84
2022/04/23 05:03:09;;;;;;;9.77;6.87;;;;;;;12.31;68.23;96278.41;4837852;29;20258;-84
2022/04/23 05:05:36;;;;;;;10.00;6.80;;;;;;;12.18;68.73;96243.78;4839471;29;20189;-91
2022/04/23 05:08:03;;;;;;;8.47;7.20;;;;;;;12.80;67.39;96287.25;4839634;29;20207;-89
2022/04/23 05:10:30;;;;;;;8.90;7.47;;;;;;;12.59;67.39;96280.88;4838285;29;20224;-90
2022/04/23 05:13:00;;;;;;;9.60;7.00;;;;;;;12.33;68.81;96283.50;4838110;29;20206;-89
2022/04/23 05:15:28;;;;;;;12.80;6.80;;;;;;;12.38;68.73;96278.88;4838375;29;20269;-90
2022/04/23 05:17:55;;;;;;;11.40;7.17;;;;;;;12.51;69.35;96272.75;4839484;29;20191;-90
2022/04/23 05:20:26;;;;;;;8.63;6.97;;;;;;;12.55;68.98;96300.19;4838365;29;20664;-91
2022/04/23 05:22:54;;;;;;;11.07;6.37;;;;;;;12.21;70.79;96264.38;4850522;29;20198;-85
2022/04/23 05:25:23;;;;;;;7.97;6.50;;;;;;;12.40;70.47;96288.22;4844058;29;20224;-90
2022/04/23 05:27:50;;;;;;;9.40;6.87;;;;;;;12.76;69.70;96293.59;4840431;29;20210;-92
2022/04/23 05:30:17;;;;;;;11.87;8.53;;;;;;;12.65;70.37;96290.84;4841419;29;20197;-91
2022/04/23 05:32:46;;;;;;;11.33;7.70;;;;;;;12.79;70.10;96302.94;4841862;29;20286;-90
2022/04/23 05:35:14;;;;;;;13.90;9.07;;;;;;;12.77;70.41;96284.03;4837644;29;20271;-90
2022/04/23 05:37:42;;;;;;;13.40;9.00;;;;;;;12.99;69.93;96290.31;4838447;29;20682;-88
2022/04/23 05:40:09;;;;;;;15.17;10.00;;;;;;;13.18;68.99;96291.69;4839599;29;20581;-90
2022/04/23 05:42:39;;;;;;;11.90;10.00;;;;;;;13.25;68.54;96261.75;4839836;29;20203;-89
2022/04/23 05:45:09;;;;;;;12.27;9.10;;;;;;;13.49;66.96;96252.22;4839879;29;20210;-90
2022/04/23 05:47:42;;;;;;;15.20;10.93;;;;;;;13.64;65.70;96245.97;4837901;29;20702;-90
2022/04/23 05:50:09;;;;;;;15.47;11.10;;;;;;;14.08;64.23;96259.22;4839517;29;20199;-90
2022/04/23 05:52:39;;;;;;;14.87;9.70;;;;;;;14.58;62.69;96285.09;4840440;29;20196;-90
2022/04/23 05:55:08;;;;;;;11.50;9.80;;;;;;;14.38;62.15;96245.81;4839125;29;20260;-87
2022/04/23 05:57:38;;;;;;;16.70;10.60;;;;;;;14.54;62.55;96277.59;4839391;29;20198;-88
2022/04/23 06:00:14;;;;;;;13.63;9.37;;;;;;;14.90;61.68;96280.06;4867959;29;20619;-91
2022/04/23 06:02:44;;;;;;;20.90;10.97;;;;;;;15.00;61.13;96272.41;4859703;29;20223;-86
2022/04/23 06:05:11;;;;;;;17.50;10.70;;;;;;;15.07;60.35;96244.91;4875207;29;20690;-92
2022/04/23 06:07:40;;;;;;;14.80;10.23;;;;;;;15.52;59.72;96277.13;4875124;29;20554;-87
2022/04/23 06:10:11;;;;;;;18.63;11.77;;;;;;;15.37;59.34;96279.09;4874374;29;20259;-92
2022/04/23 06:12:38;;;;;;;14.87;11.73;;;;;;;15.26;59.90;96279.06;4876413;29;20208;-85
2022/04/23 06:15:06;;;;;;;13.20;11.43;;;;;;;15.21;59.94;96249.88;4890075;29;20349;-90
2022/04/23 06:17:41;;;;;;;13.47;10.33;;;;;;;15.61;59.26;96285.06;4879852;29;20207;-86
2022/04/23 06:20:12;;;;;;;13.20;10.70;;;;;;;15.99;58.98;96290.69;4862804;29;20650;-90
2022/04/23 06:22:40;;;;;;;13.90;10.80;;;;;;;16.20;58.45;96268.09;4885709;29;20200;-85
2022/04/23 06:25:08;;;;;;;18.83;11.27;;;;;;;16.20;57.40;96252.44;4885548;29;20215;-89
2022/04/23 06:27:37;;;;;;;11.67;9.63;;;;;;;16.05;57.76;96271.13;4884500;29;20304;-88
2022/04/23 06:30:10;;;;;;;11.10;9.27;;;;;;;15.93;58.86;96285.97;4900255;29;20229;-91
2022/04/23 06:32:44;;;;;;;11.90;8.90;;;;;;;15.57;60.13;96259.31;4878683;29;20291;-90
2022/04/23 06:35:12;;;;;;;12.53;7.80;;;;;;;16.04;59.03;96293.78;4878635;29;20227;-87
2022/04/23 06:38:25;;;;;;;9.10;8.13;;;;;;;16.30;59.11;96289.94;4888358;29;20228;-90
2022/04/23 06:41:14;;;;;;;12.57;8.50;;;;;;;16.48;58.49;96265.88;4879572;29;20297;-89
2022/04/23 06:43:48;;;;;;;10.27;7.70;;;;;;;16.67;56.65;96269.50;4893157;29;20737;-88
2022/04/23 06:46:20;;;;;;;8.93;6.77;;;;;;;16.92;56.49;96292.69;4861454;29;20207;-86
2022/04/23 06:48:49;;;;;;;6.63;5.40;;;;;;;17.13;55.91;96299.69;4877304;29;20640;-89
2022/04/23 06:51:21;;;;;;;10.03;5.67;;;;;;;16.97;55.87;96290.53;4877310;29;20222;-87
2022/04/23 06:53:48;;;;;;;7.57;6.27;;;;;;;16.92;56.06;96270.91;4879206;29;20200;-90
2022/04/23 06:56:15;;;;;;;9.63;6.27;;;;;;;16.89;55.74;96281.66;4884091;29;20216;-88
2022/04/23 06:59:13;;;;;;;10.60;6.33;;;;;;;16.88;56.75;96285.19;4887481;29;20238;-88
2022/04/23 07:02:11;;;;;;;9.50;6.90;;;;;;;16.86;57.58;96282.72;4878011;29;20400;-89
2022/04/23 07:04:43;;;;;;;7.40;6.60;;;;;;;16.68;56.87;96291.25;4877559;29;20276;-90
2022/04/23 07:07:11;;;;;;;11.87;7.90;;;;;;;16.78;57.27;96294.75;4876571;29;20688;-89
2022/04/23 07:09:40;;;;;;;10.23;7.57;;;;;;;17.14;57.05;96281.28;4876420;29;20204;-84
2022/04/23 07:12:10;;;;;;;10.07;7.57;;;;;;;17.30;55.92;96252.84;4874019;29;20216;-84
2022/04/23 07:14:39;;;;;;;13.63;8.03;;;;;;;17.25;56.52;96259.44;4876247;29;20235;-86
2022/04/23 07:20:13;;;;;;;9.23;6.93;;;;;;;17.56;56.16;96298.59;4869640;29;20203;-83
2022/04/23 07:26:13;;;;;;;9.43;6.93;;;;;;;17.93;54.45;96258.78;4898122;29;20407;-89
2022/04/23 07:28:40;;;;;;;9.13;6.70;;;;;;;18.26;53.63;96277.59;4880128;29;20197;-87
2022/04/23 07:31:11;;;;;;;9.07;6.23;;;;;;;18.43;53.26;96282.22;4890856;29;20217;-86
2022/04/23 07:39:13;;;;;;;10.63;6.67;;;;;;;18.86;52.26;96297.53;4875569;29;20221;-88
2022/04/23 07:41:41;;;;;;;9.50;5.23;;;;;;;18.65;51.50;96288.97;4875488;29;20598;-84
2022/04/23 07:44:11;;;;;;;8.53;5.90;;;;;;;18.41;51.95;96283.28;4876251;29;20195;-87
2022/04/23 07:46:43;;;;;;;8.67;5.97;;;;;;;18.59;51.98;96294.75;4859399;29;20288;-84
2022/04/23 07:49:40;;;;;;;12.33;6.17;;;;;;;18.92;50.50;96302.22;4878329;29;20203;-86
2022/04/23 07:52:10;;;;;;;8.97;6.17;;;;;;;18.99;49.61;96287.59;4860294;29;20206;-88
2022/04/23 07:54:39;;;;;;;9.43;6.13;;;;;;;19.06;50.58;96283.44;4876676;29;20266;-84
2022/04/23 07:57:23;;;;;;;9.93;6.40;;;;;;;19.17;49.74;96288.53;4875957;29;20227;-85
2022/04/23 07:59:55;;;;;;;7.63;4.50;;;;;;;19.14;48.11;96278.34;4876164;29;20242;-92
2022/04/23 08:02:26;;;;;;;14.27;5.07;;;;;;;19.36;48.74;96288.53;4876989;29;20570;-93
2022/04/23 08:04:56;;;;;;;6.90;3.90;;;;;;;18.85;49.37;96258.34;4876194;29;20190;-90
2022/04/23 08:07:25;;;;;;;7.27;4.10;;;;;;;18.98;48.08;96290.38;4875698;29;20199;-88
2022/04/23 08:09:53;;;;;;;5.90;4.17;;;;;;;18.99;47.98;96292.84;4874296;29;20267;-90
2022/04/23 08:12:23;;;;;;;5.80;4.20;;;;;;;18.64;48.90;96240.13;4874893;29;20266;-93
2022/04/23 08:14:50;;;;;;;6.30;3.67;;;;;;;19.10;46.96;96290.06;4875535;29;20242;-92
2022/04/23 08:20:13;;;;;;;5.73;3.20;;;;;;;19.21;47.07;96281.19;4886251;29;20206;-85
2022/04/23 08:22:44;;;;;;;7.63;4.53;;;;;;;19.35;46.85;96275.56;4874162;29;20226;-90
2022/04/23 08:25:14;;;;;;;5.90;4.17;;;;;;;19.36;46.48;96270.16;4874904;29;20349;-85
2022/04/23 08:27:51;;;;;;;6.37;4.27;;;;;;;19.45;45.95;96285.03;4878321;29;20202;-87
2022/04/23 08:30:36;;;;;;;6.57;3.27;;;;;;;19.20;44.05;96245.44;4862492;29;20215;-88
2022/04/23 08:33:05;;;;;;;4.33;3.63;;;;;;;19.21;45.56;96253.16;4877215;29;20290;-86
2022/04/23 08:35:36;;;;;;;10.07;4.90;;;;;;;19.41;45.91;96254.78;4876734;29;20238;-85
2022/04/23 08:38:09;;;;;;;7.70;3.20;;;;;;;19.51;45.24;96282.81;4879137;29;20210;-88
2022/04/23 08:40:44;;;;;;;7.50;3.70;;;;;;;19.59;46.05;96288.19;4877391;29;20235;-85
2022/04/23 08:43:12;;;;;;;4.47;3.27;;;;;;;19.34;45.68;96282.59;4876348;29;20625;-85
2022/04/23 08:45:42;;;;;;;4.93;3.13;;;;;;;18.91;46.86;96244.66;4876942;29;20276;-85
2022/04/23 08:48:14;;;;;;;9.77;3.90;;;;;;;19.17;47.05;96254.41;4876376;29;20207;-86
2022/04/23 08:50:48;;;;;;;5.70;3.23;;;;;;;19.57;46.01;96263.84;4877122;29;20206;-87
2022/04/23 08:53:27;;;;;;;6.80;3.67;;;;;;;19.93;45.31;96281.41;4877500;29;20195;-88
2022/04/23 08:56:01;;;;;;;5.43;3.60;;;;;;;19.99;45.13;96260.63;4890644;29;20230;-85
2022/04/23 08:58:32;;;;;;;5.23;3.10;;;;;;;19.94;45.06;96262.03;4891758;29;20214;-84
2022/04/23 09:01:00;;;;;;;5.90;3.10;;;;;;;19.95;44.72;96264.50;4876287;29;20238;-86
2022/04/23 09:03:34;;;;;;;4.33;3.23;;;;;;;19.83;45.37;96264.84;4876879;29;20557;-86
2022/04/23 09:06:05;;;;;;;12.07;5.53;;;;;;;19.70;45.25;96252.03;4875562;29;20217;-86
2022/04/23 09:08:34;;;;;;;6.37;3.90;;;;;;;20.07;45.25;96275.69;4891508;29;20202;-86
2022/04/23 09:11:02;;;;;;;5.03;3.30;;;;;;;20.29;44.99;96246.38;4876931;29;20185;-85
2022/04/23 09:13:31;;;;;;;7.50;4.10;;;;;;;20.60;44.38;96276.59;4877719;29;20283;-88
2022/04/23 09:24:49;;;;;;;10.67;4.27;;;;;;;20.44;44.57;96263.28;4877335;29;20218;-86
2022/04/23 09:27:16;;;;;;;5.00;2.90;;;;;;;20.34;44.26;96214.38;4869378;29;20206;-87
2022/04/23 09:29:58;;;;;;;5.77;3.30;;;;;;;20.51;44.70;96258.25;4878861;29;20277;-85
2022/04/23 09:32:27;;;;;;;5.37;3.30;;;;;;;20.75;44.21;96259.28;4876316;29;20191;-85
2022/04/23 09:35:10;;;;;;;10.83;3.80;;;;;;;20.86;42.68;96252.97;4877177;29;20212;-86
2022/04/23 09:40:29;;;;;;;6.73;3.23;;;;;;;20.88;42.20;96228.16;4876411;29;20208;-85
2022/04/23 09:43:05;;;;;;;4.87;2.83;;;;;;;20.90;41.71;96243.78;4876283;29;20212;-87
2022/04/23 09:45:43;;;;;;;5.67;3.20;;;;;;;20.86;42.24;96259.06;4876225;29;20191;-89
2022/04/23 09:48:12;;;;;;;8.93;3.30;;;;;;;21.10;42.42;96247.94;4878002;29;20192;-87
2022/04/23 09:50:43;;;;;;;7.77;3.30;;;;;;;21.02;41.14;96201.28;4875020;29;20229;-89
2022/04/23 09:53:12;;;;;;;6.80;2.90;;;;;;;21.35;41.44;96255.00;4876924;29;20262;-85
2022/04/23 09:55:42;;;;;;;6.57;2.57;;;;;;;21.27;41.49;96256.78;4875232;29;20242;-86
2022/04/23 09:58:10;;;;;;;9.23;3.40;;;;;;;21.54;40.48;96248.69;4874656;29;20312;-85
2022/04/23 10:00:47;;;;;;;10.23;3.53;;;;;;;21.64;39.29;96229.16;4876262;29;20732;-86
2022/04/23 10:03:38;;;;;;;10.63;3.30;;;;;;;22.03;39.72;96245.31;4875888;29;20306;-84
2022/04/23 10:06:27;;;;;;;11.97;4.50;;;;;;;21.88;39.39;96215.28;4836837;29;20291;-86
2022/04/23 10:09:36;;;;;;;5.77;3.17;;;;;;;22.01;39.25;96220.13;4877693;29;20200;-87
2022/04/23 10:12:08;;;;;;;7.63;4.17;;;;;;;22.27;40.11;96237.50;4877356;29;20200;-85
2022/04/23 10:14:54;;;;;;;14.30;3.63;;;;;;;22.26;40.21;96233.19;4877161;29;20397;-84
2022/04/23 10:17:24;;;;;;;7.90;3.80;;;;;;;22.03;40.05;96184.66;4875426;29;20205;-86
2022/04/23 10:20:09;;;;;;;8.57;4.47;;;;;;;22.30;39.92;96210.78;4875083;29;20653;-89
2022/04/23 10:23:09;;;;;;;8.40;4.03;;;;;;;22.26;39.06;96240.28;4875506;29;20687;-86
2022/04/23 10:26:20;;;;;;;6.73;3.07;;;;;;;22.11;39.98;96240.09;4874822;29;20212;-85
2022/04/23 10:28:57;;;;;;;6.97;3.67;;;;;;;21.74;40.27;96221.13;4876195;29;20232;-85
2022/04/23 10:31:24;;;;;;;10.60;3.80;;;;;;;21.77;40.87;96215.53;4876898;29;20211;-85
2022/04/23 10:33:53;;;;;;;7.60;3.67;;;;;;;21.54;40.89;96233.72;4857636;29;20714;-84
2022/04/23 10:36:22;;;;;;;8.10;3.23;;;;;;;21.60;39.36;96233.09;4876003;29;20236;-86
2022/04/23 10:39:11;;;;;;;8.57;3.50;;;;;;;21.43;38.99;96222.63;4858204;29;20207;-85
2022/04/23 10:41:43;;;;;;;9.73;3.33;;;;;;;21.73;37.86;96233.50;4863155;29;20211;-85
2022/04/23 10:44:12;;;;;;;9.00;2.80;;;;;;;21.76;36.67;96196.25;4874470;29;20201;-86
2022/04/23 10:46:44;;;;;;;9.40;3.23;;;;;;;21.83;36.73;96212.28;4892653;29;20220;-85
2022/04/23 10:49:19;;;;;;;9.37;2.97;;;;;;;21.76;36.95;96187.53;4893510;29;20188;-86
2022/04/23 10:51:57;;;;;;;9.47;3.33;;;;;;;21.72;36.84;96231.03;4898178;29;20217;-84
2022/04/23 10:54:40;;;;;;;7.73;2.60;;;;;;;21.86;36.90;96227.81;4895877;29;20671;-86
2022/04/23 10:57:13;;;;;;;8.53;3.40;;;;;;;21.83;37.01;96191.19;4875199;29;20219;-86
2022/04/23 10:59:47;;;;;;;7.47;3.00;;;;;;;21.99;36.29;96230.81;4874665;29;20288;-85
2022/04/23 11:12:32;;;;;;;12.90;3.63;;;;;;;22.67;35.88;96197.97;4877838;29;20203;-89
2022/04/23 11:15:02;;;;;;;10.73;3.70;;;;;;;22.89;35.70;96203.59;4876353;29;20210;-90
2022/04/23 11:17:34;;;;;;;8.93;3.50;;;;;;;23.09;38.85;96228.66;4875228;29;20579;-86
2022/04/23 11:20:02;;;;;;;11.00;3.73;;;;;;;22.71;38.82;96187.13;4875805;29;20291;-92
2022/04/23 11:22:35;;;;;;;10.57;3.73;;;;;;;22.93;40.22;96229.53;4874292;29;20229;-89
2022/04/23 11:25:04;;;;;;;5.67;2.93;;;;;;;22.39;40.42;96217.72;4875904;29;20250;-85
2022/04/23 11:27:36;;;;;;;12.43;3.20;;;;;;;22.00;41.17;96213.19;4874898;29;20220;-92
2022/04/23 11:30:07;;;;;;;6.73;3.00;;;;;;;21.97;41.40;96229.34;4873855;29;20270;-89
2022/04/23 11:32:37;;;;;;;8.10;3.17;;;;;;;21.86;40.86;96199.59;4882116;29;20200;-87
2022/04/23 11:35:08;;;;;;;8.03;2.90;;;;;;;22.25;39.14;96215.72;4895816;29;20217;-90
2022/04/23 11:37:40;;;;;;;10.23;3.63;;;;;;;22.62;38.81;96221.44;4879233;29;20232;-86
2022/04/23 11:40:20;;;;;;;9.27;2.90;;;;;;;22.56;37.31;96203.56;4862631;29;20204;-87
2022/04/23 11:42:47;;;;;;;8.13;3.50;;;;;;;22.55;38.52;96215.09;4877184;29;20202;-86
2022/04/23 11:45:20;;;;;;;11.47;3.57;;;;;;;22.89;37.54;96232.66;4876075;29;20213;-88
2022/04/23 11:47:48;;;;;;;8.23;3.40;;;;;;;23.00;38.98;96230.47;4875227;29;20285;-89
2022/04/23 11:50:22;;;;;;;5.60;3.10;;;;;;;22.83;37.85;96228.88;4873280;29;20214;-88
2022/04/23 11:53:03;;;;;;;11.43;3.70;;;;;;;22.54;38.53;96231.94;4875333;29;20230;-89
2022/04/23 11:55:31;;;;;;;9.37;3.33;;;;;;;22.25;38.43;96238.63;4874083;29;20229;-90
2022/04/23 11:58:06;;;;;;;8.77;3.20;;;;;;;22.12;38.44;96236.47;4878154;29;20198;-90
2022/04/23 12:00:36;;;;;;;9.50;2.90;;;;;;;22.06;38.40;96215.16;4878955;29;20222;-85
2022/04/23 12:03:08;;;;;;;7.27;3.17;;;;;;;22.15;38.22;96217.69;4881108;29;20198;-87
2022/04/23 12:05:36;;;;;;;7.63;3.50;;;;;;;22.30;38.29;96226.59;4880943;29;20207;-90
2022/04/23 12:08:05;;;;;;;8.47;2.90;;;;;;;22.21;38.20;96222.31;4879370;29;20660;-86
2022/04/23 12:10:34;;;;;;;9.23;3.27;;;;;;;22.51;38.49;96226.97;4880886;29;20226;-89
2022/04/23 12:13:07;;;;;;;7.73;3.73;;;;;;;22.59;39.75;96221.75;4877567;29;20210;-85
2022/04/23 12:15:36;;;;;;;5.90;3.50;;;;;;;22.34;39.72;96169.09;4877528;29;20660;-88
2022/04/23 12:18:23;;;;;;;9.63;3.33;;;;;;;22.80;39.74;96223.91;4876846;29;20349;-88
2022/04/23 12:20:50;;;;;;;5.33;2.80;;;;;;;22.55;39.19;96214.28;4876100;29;20774;-87
2022/04/23 12:23:21;;;;;;;10.77;3.70;;;;;;;22.54;39.13;96224.03;4876381;29;20221;-86
2022/04/23 12:26:07;;;;;;;9.03;3.20;;;;;;;22.63;40.45;96212.50;4860740;29;20701;-92
2022/04/23 12:42:38;;;;;;;8.33;3.37;;;;;;;22.82;39.60;96215.81;4876476;29;20219;-85
2022/04/23 12:45:18;;;;;;;7.67;3.40;;;;;;;22.97;39.42;96211.50;4875436;29;20202;-86